Time;durP1;ratioP1;P1;durP2;ratioP2;P2;SDS_P1;SDS_P2;PMS_P1;PMS_P2;Temp;Humidity;BMP_temperature;BMP_pressure;BME280_temperature;BME280_humidity;BME280_pressure;Samples;Min_cycle;Max_cycle;Signal;HPM_P1;HPM_P2
2024/03/13 00:02:10;;;;;;;1.30;1.20;;;;;;;;;;6317015;28;20521;-76
2024/03/13 00:05:10;;;;;;;1.95;1.35;;;;;;;;;;6313867;28;20051;-77
2024/03/13 00:08:13;;;;;;;1.27;1.10;;;;;;;;;;6290750;28;20036;-76
2024/03/13 00:11:13;;;;;;;1.40;1.30;;;;;;;;;;6306541;28;20032;-77
2024/03/13 00:14:16;;;;;;;1.33;1.03;;;;;;;;;;6292760;28;20024;-76
2024/03/13 00:17:20;;;;;;;1.15;1.05;;;;;;;;;;6306488;28;20081;-76
2024/03/13 00:20:20;;;;;;;1.30;1.20;;;;;;;;;;6309309;28;20024;-76
2024/03/13 00:23:21;;;;;;;1.90;1.37;;;;;;;;;;6314751;28;20396;-77
2024/03/13 00:26:21;;;;;;;1.95;1.33;;;;;;;;;;6280654;28;20048;-77
2024/03/13 00:29:22;;;;;;;1.37;1.27;;;;;;;;;;6292451;28;20068;-77
2024/03/13 00:32:25;;;;;;;1.48;1.23;;;;;;;;;;6291103;28;20021;-77
2024/03/13 00:35:26;;;;;;;1.33;1.13;;;;;;;;;;6286162;28;20481;-76
2024/03/13 00:38:27;;;;;;;1.60;1.50;;;;;;;;;;6294146;28;20186;-76
2024/03/13 00:41:27;;;;;;;1.45;1.35;;;;;;;;;;6287902;28;20017;-76
2024/03/13 00:44:28;;;;;;;1.50;1.40;;;;;;;;;;6292325;28;20108;-76
2024/03/13 00:47:29;;;;;;;1.33;1.23;;;;;;;;;;6288367;28;20029;-76
2024/03/13 00:50:29;;;;;;;1.80;1.33;;;;;;;;;;6285946;28;20094;-76
2024/03/13 00:53:30;;;;;;;1.67;1.33;;;;;;;;;;6286547;28;20032;-76
2024/03/13 00:56:31;;;;;;;1.30;1.20;;;;;;;;;;6286152;28;20030;-78
2024/03/13 00:59:32;;;;;;;1.30;1.17;;;;;;;;;;6280754;28;20021;-77
2024/03/13 01:02:33;;;;;;;2.42;1.30;;;;;;;;;;5939941;28;10000362;-78
2024/03/13 01:05:33;;;;;;;;;;;;;;;;;;6291011;28;20021;-77
2024/03/13 01:08:34;;;;;;;1.10;1.00;;;;;;;;;;6291194;28;20018;-77
2024/03/13 01:11:35;;;;;;;1.40;1.23;;;;;;;;;;6296366;28;20032;-77
2024/03/13 01:14:39;;;;;;;1.20;1.10;;;;;;;;;;6296489;28;20032;-77
2024/03/13 01:17:40;;;;;;;1.85;1.27;;;;;;;;;;6288898;28;20028;-78
2024/03/13 01:20:40;;;;;;;1.52;1.42;;;;;;;;;;6291714;28;20035;-77
2024/03/13 01:23:40;;;;;;;1.50;1.40;;;;;;;;;;6297307;28;20032;-77
2024/03/13 01:26:41;;;;;;;1.40;1.30;;;;;;;;;;6308481;28;20091;-77
2024/03/13 01:29:46;;;;;;;1.53;1.43;;;;;;;;;;6315956;28;20023;-76
2024/03/13 01:32:47;;;;;;;1.60;1.25;;;;;;;;;;6311189;28;20024;-77
2024/03/13 01:35:47;;;;;;;1.73;1.40;;;;;;;;;;6320348;28;20036;-77
2024/03/13 01:38:48;;;;;;;1.10;0.97;;;;;;;;;;6319449;28;20047;-76
2024/03/13 01:55:30;;;;;;;1.58;1.42;;;;;;;;;;6312149;28;20395;-76
2024/03/13 01:58:40;;;;;;;1.20;1.10;;;;;;;;;;6314969;28;20028;-77
2024/03/13 02:04:59;;;;;;;2.00;1.42;;;;;;;;;;6312581;28;20023;-76
2024/03/13 02:07:59;;;;;;;1.60;1.30;;;;;;;;;;6299253;28;20074;-76
2024/03/13 02:11:00;;;;;;;1.50;1.40;;;;;;;;;;6319753;28;20022;-77
2024/03/13 02:14:04;;;;;;;1.40;1.30;;;;;;;;;;6321108;28;20043;-77
2024/03/13 02:17:06;;;;;;;2.05;1.60;;;;;;;;;;6313542;28;20016;-75
2024/03/13 02:20:09;;;;;;;1.48;1.27;;;;;;;;;;6312547;28;20044;-75
2024/03/13 02:23:09;;;;;;;1.38;1.27;;;;;;;;;;6314818;28;20127;-76
2024/03/13 02:26:10;;;;;;;1.63;1.50;;;;;;;;;;6319107;28;20393;-76
2024/03/13 02:29:12;;;;;;;1.53;1.30;;;;;;;;;;6322497;28;20024;-76
2024/03/13 02:32:13;;;;;;;1.67;1.40;;;;;;;;;;6318964;28;20027;-76
2024/03/13 02:35:13;;;;;;;2.07;1.27;;;;;;;;;;6320104;28;20016;-76
2024/03/13 02:38:14;;;;;;;1.55;1.45;;;;;;;;;;6321203;28;20157;-75
2024/03/13 02:41:14;;;;;;;1.27;1.17;;;;;;;;;;6321271;28;20127;-75
2024/03/13 02:44:14;;;;;;;1.87;1.40;;;;;;;;;;6320587;28;20028;-76
2024/03/13 02:47:17;;;;;;;1.43;1.30;;;;;;;;;;6320200;28;20521;-76
2024/03/13 02:50:19;;;;;;;1.70;1.50;;;;;;;;;;6319893;28;20059;-76
2024/03/13 02:53:19;;;;;;;1.60;1.50;;;;;;;;;;6320819;28;20032;-76
2024/03/13 02:56:19;;;;;;;1.93;1.73;;;;;;;;;;6314693;28;20028;-76
2024/03/13 02:59:20;;;;;;;1.90;1.60;;;;;;;;;;6319975;28;20428;-76
2024/03/13 03:02:20;;;;;;;1.73;1.50;;;;;;;;;;6318132;28;20524;-76
2024/03/13 03:05:21;;;;;;;1.97;1.60;;;;;;;;;;6317465;28;20582;-76
2024/03/13 03:08:22;;;;;;;1.60;1.43;;;;;;;;;;6300919;28;20051;-76
2024/03/13 03:11:25;;;;;;;1.70;1.60;;;;;;;;;;6302116;28;20793;-76
2024/03/13 03:14:25;;;;;;;1.58;1.35;;;;;;;;;;6318635;28;20016;-77
2024/03/13 03:17:26;;;;;;;1.40;1.30;;;;;;;;;;6291057;28;20120;-77
2024/03/13 03:20:26;;;;;;;1.77;1.47;;;;;;;;;;6307600;28;20023;-77
2024/03/13 03:23:27;;;;;;;2.50;1.73;;;;;;;;;;6301847;28;20051;-77
2024/03/13 03:26:28;;;;;;;1.73;1.47;;;;;;;;;;6319169;28;20072;-77
2024/03/13 03:29:28;;;;;;;1.63;1.52;;;;;;;;;;6320804;28;20020;-76
2024/03/13 03:32:28;;;;;;;1.97;1.77;;;;;;;;;;6320018;28;20396;-77
2024/03/13 03:35:29;;;;;;;1.70;1.40;;;;;;;;;;6298797;28;20020;-77
2024/03/13 03:38:29;;;;;;;1.83;1.47;;;;;;;;;;6316806;28;20024;-77
2024/03/13 03:41:29;;;;;;;1.90;1.70;;;;;;;;;;6320405;28;20021;-77
2024/03/13 03:44:30;;;;;;;2.10;1.70;;;;;;;;;;6321233;28;20032;-77
2024/03/13 03:47:30;;;;;;;1.97;1.60;;;;;;;;;;6314856;28;20024;-77
2024/03/13 03:50:31;;;;;;;2.00;1.70;;;;;;;;;;6320173;28;20032;-77
2024/03/13 03:53:31;;;;;;;2.05;1.77;;;;;;;;;;6317536;28;20019;-77
2024/03/13 03:56:32;;;;;;;1.87;1.57;;;;;;;;;;6294514;28;20028;-76
2024/03/13 03:59:32;;;;;;;2.37;1.70;;;;;;;;;;6321356;28;20507;-76
2024/03/13 04:02:33;;;;;;;2.30;2.07;;;;;;;;;;6319717;28;20063;-76
2024/03/13 04:05:34;;;;;;;1.88;1.70;;;;;;;;;;6319350;28;20024;-76
2024/03/13 04:08:34;;;;;;;2.33;1.73;;;;;;;;;;6319107;28;20119;-76
2024/03/13 04:11:35;;;;;;;2.67;2.17;;;;;;;;;;6316635;28;20530;-77
2024/03/13 04:14:37;;;;;;;2.10;1.90;;;;;;;;;;6313848;28;20044;-78
2024/03/13 04:17:37;;;;;;;2.35;1.83;;;;;;;;;;6323340;28;20040;-77
2024/03/13 04:20:38;;;;;;;2.30;2.10;;;;;;;;;;6322813;28;20567;-77
2024/03/13 04:23:38;;;;;;;2.63;2.20;;;;;;;;;;6324295;28;20020;-76
2024/03/13 04:26:42;;;;;;;2.33;2.00;;;;;;;;;;6318923;28;20777;-76
2024/03/13 04:29:42;;;;;;;2.67;2.35;;;;;;;;;;6320018;28;20035;-77
2024/03/13 04:32:42;;;;;;;2.80;2.37;;;;;;;;;;6305342;28;20024;-78
2024/03/13 04:35:43;;;;;;;3.10;2.17;;;;;;;;;;6323340;28;20080;-76
2024/03/13 04:38:50;;;;;;;2.75;2.22;;;;;;;;;;6323487;28;20035;-77
2024/03/13 04:41:51;;;;;;;3.00;2.45;;;;;;;;;;6322450;28;20028;-77
2024/03/13 04:44:51;;;;;;;2.77;2.50;;;;;;;;;;6323333;28;20411;-77
2024/03/13 04:47:51;;;;;;;3.50;2.27;;;;;;;;;;6322748;28;20103;-77
2024/03/13 04:50:51;;;;;;;4.90;2.40;;;;;;;;;;6321190;28;20027;-77
2024/03/13 04:53:52;;;;;;;2.43;2.20;;;;;;;;;;6322815;28;20342;-77
2024/03/13 04:56:53;;;;;;;2.93;2.30;;;;;;;;;;6323346;28;20036;-77
2024/03/13 04:59:53;;;;;;;2.67;2.35;;;;;;;;;;6322732;28;20258;-77
2024/03/13 05:02:55;;;;;;;2.53;2.33;;;;;;;;;;6322927;28;20067;-76
2024/03/13 05:05:55;;;;;;;2.97;2.53;;;;;;;;;;6321100;28;20028;-77
2024/03/13 05:08:55;;;;;;;3.20;2.63;;;;;;;;;;6317423;28;20532;-77
2024/03/13 05:11:56;;;;;;;3.37;2.73;;;;;;;;;;6321884;28;20467;-76
2024/03/13 05:14:56;;;;;;;2.80;2.40;;;;;;;;;;6323432;28;20024;-77
2024/03/13 05:17:57;;;;;;;3.53;2.63;;;;;;;;;;6322263;28;20407;-77
2024/03/13 05:20:58;;;;;;;3.17;2.47;;;;;;;;;;6320838;28;20035;-77
2024/03/13 05:23:59;;;;;;;3.10;2.58;;;;;;;;;;6321449;28;20028;-77
2024/03/13 05:26:59;;;;;;;3.90;2.40;;;;;;;;;;6311240;28;20481;-76
2024/03/13 05:29:59;;;;;;;3.83;3.13;;;;;;;;;;6321811;28;20048;-75
2024/03/13 05:33:00;;;;;;;3.07;2.63;;;;;;;;;;6299106;28;20388;-76
2024/03/13 05:36:02;;;;;;;3.03;2.63;;;;;;;;;;6318677;28;20028;-77
2024/03/13 05:39:04;;;;;;;3.47;2.65;;;;;;;;;;6319100;28;20028;-78
2024/03/13 05:42:05;;;;;;;4.13;3.00;;;;;;;;;;6316295;28;20111;-78
2024/03/13 05:45:07;;;;;;;3.95;3.05;;;;;;;;;;6323678;28;20027;-79
2024/03/13 05:48:08;;;;;;;;;;;;;;;;;;6316494;28;20038;-78
2024/03/13 05:51:08;;;;;;;3.03;2.50;;;;;;;;;;6316452;28;19943;-78
2024/03/13 05:54:09;;;;;;;3.00;2.33;;;;;;;;;;6322067;28;20084;-78
2024/03/13 05:57:09;;;;;;;3.30;2.67;;;;;;;;;;6317273;28;20414;-77
2024/03/13 06:00:13;;;;;;;3.33;2.63;;;;;;;;;;6320835;28;20024;-78
2024/03/13 06:03:13;;;;;;;3.28;2.50;;;;;;;;;;6322710;28;20032;-77
2024/03/13 06:06:13;;;;;;;4.10;2.97;;;;;;;;;;6319934;28;20051;-77
2024/03/13 06:09:15;;;;;;;2.77;2.30;;;;;;;;;;6302755;28;20713;-77
2024/03/13 06:12:15;;;;;;;3.53;2.70;;;;;;;;;;6321262;28;20020;-77
2024/03/13 06:15:16;;;;;;;3.67;2.70;;;;;;;;;;6321203;28;20445;-77
2024/03/13 06:18:18;;;;;;;4.17;2.97;;;;;;;;;;6320040;28;20020;-77
2024/03/13 06:21:20;;;;;;;3.60;2.72;;;;;;;;;;6310128;28;20032;-77
2024/03/13 06:24:30;;;;;;;3.10;2.53;;;;;;;;;;6295550;28;20024;-78
2024/03/13 06:27:30;;;;;;;3.75;2.70;;;;;;;;;;6320260;28;20141;-77
2024/03/13 06:30:31;;;;;;;3.53;2.70;;;;;;;;;;6321307;28;20388;-76
2024/03/13 06:33:31;;;;;;;3.77;2.70;;;;;;;;;;6319863;28;20016;-76
2024/03/13 06:36:31;;;;;;;3.10;2.63;;;;;;;;;;6311944;28;20333;-76
2024/03/13 06:39:32;;;;;;;3.67;2.57;;;;;;;;;;6318631;28;20069;-76
2024/03/13 06:42:32;;;;;;;3.00;2.57;;;;;;;;;;6316649;28;20024;-76
2024/03/13 06:45:32;;;;;;;2.90;2.30;;;;;;;;;;6321286;28;20429;-76
2024/03/13 06:48:34;;;;;;;3.13;2.70;;;;;;;;;;6321311;28;20031;-76
2024/03/13 06:51:34;;;;;;;3.42;3.10;;;;;;;;;;6317966;28;20038;-75
2024/03/13 06:54:36;;;;;;;3.60;2.73;;;;;;;;;;6316822;28;20024;-76
2024/03/13 06:57:36;;;;;;;3.75;3.05;;;;;;;;;;6313957;28;20046;-76
2024/03/13 07:00:36;;;;;;;4.73;3.50;;;;;;;;;;6320330;28;20035;-76
2024/03/13 07:03:36;;;;;;;4.40;3.37;;;;;;;;;;6320606;28;20468;-76
2024/03/13 07:06:37;;;;;;;4.27;3.10;;;;;;;;;;6318625;28;20131;-76
2024/03/13 07:09:37;;;;;;;3.27;2.83;;;;;;;;;;6313612;28;20032;-76
2024/03/13 07:12:37;;;;;;;4.37;3.20;;;;;;;;;;6319368;28;20463;-76
2024/03/13 07:15:44;;;;;;;3.50;2.77;;;;;;;;;;6318999;28;20180;-76
2024/03/13 07:18:44;;;;;;;3.20;2.90;;;;;;;;;;6316467;28;20035;-76
2024/03/13 07:21:44;;;;;;;3.90;2.83;;;;;;;;;;6319018;28;20028;-77
2024/03/13 07:24:44;;;;;;;3.27;2.83;;;;;;;;;;6321854;28;20034;-76
2024/03/13 07:27:45;;;;;;;3.53;2.97;;;;;;;;;;6322015;28;20127;-76
2024/03/13 07:30:47;;;;;;;3.23;2.93;;;;;;;;;;6322941;28;20056;-79
2024/03/13 07:33:50;;;;;;;3.42;2.60;;;;;;;;;;6319791;28;20012;-76
2024/03/13 07:36:51;;;;;;;3.30;2.78;;;;;;;;;;6312128;28;20550;-76
2024/03/13 07:39:55;;;;;;;;;;;;;;;;;;6322727;28;20016;-77
2024/03/13 07:42:55;;;;;;;2.63;2.28;;;;;;;;;;6321443;28;19908;-77
2024/03/13 07:45:57;;;;;;;2.43;2.23;;;;;;;;;;6296146;28;20027;-77
2024/03/13 07:48:58;;;;;;;3.08;2.63;;;;;;;;;;6319931;28;20046;-77
2024/03/13 07:52:01;;;;;;;4.70;3.17;;;;;;;;;;6308929;28;20024;-77
2024/03/13 07:55:02;;;;;;;4.18;3.10;;;;;;;;;;6321263;28;20132;-80
2024/03/13 07:58:03;;;;;;;3.90;3.20;;;;;;;;;;6313305;28;20151;-80
2024/03/13 08:01:05;;;;;;;3.50;2.90;;;;;;;;;;6314020;28;20039;-79
2024/03/13 08:04:05;;;;;;;3.17;2.60;;;;;;;;;;6322195;28;20024;-79
2024/03/13 08:07:06;;;;;;;4.40;3.30;;;;;;;;;;6319609;28;20412;-79
2024/03/13 08:10:08;;;;;;;4.13;2.93;;;;;;;;;;6304241;28;20456;-78
2024/03/13 08:13:10;;;;;;;3.83;2.78;;;;;;;;;;6321796;28;20032;-78
2024/03/13 08:16:11;;;;;;;3.95;2.90;;;;;;;;;;6321191;28;20023;-76
2024/03/13 08:19:11;;;;;;;3.63;2.97;;;;;;;;;;6321903;28;20031;-78
2024/03/13 08:22:11;;;;;;;4.33;3.07;;;;;;;;;;6300267;28;20087;-77
2024/03/13 08:25:20;;;;;;;3.90;2.83;;;;;;;;;;6320779;28;20056;-78
2024/03/13 08:28:21;;;;;;;3.60;2.63;;;;;;;;;;6319538;28;20051;-77
2024/03/13 08:31:22;;;;;;;3.77;2.90;;;;;;;;;;6310367;28;20042;-77
2024/03/13 08:34:23;;;;;;;4.72;3.65;;;;;;;;;;6283248;28;20039;-77
2024/03/13 08:37:23;;;;;;;4.70;3.07;;;;;;;;;;6318674;28;20123;-77
2024/03/13 08:40:23;;;;;;;3.37;3.00;;;;;;;;;;6320895;28;20028;-77
2024/03/13 08:43:24;;;;;;;2.90;2.60;;;;;;;;;;6320883;28;20028;-77
2024/03/13 08:46:25;;;;;;;3.83;3.17;;;;;;;;;;6310519;28;20039;-77
2024/03/13 08:49:25;;;;;;;5.17;3.23;;;;;;;;;;6318375;28;20055;-77
2024/03/13 08:52:25;;;;;;;4.07;3.20;;;;;;;;;;6318960;28;20110;-77
2024/03/13 08:55:26;;;;;;;3.57;3.03;;;;;;;;;;6320372;28;20017;-78
2024/03/13 08:58:26;;;;;;;5.00;3.13;;;;;;;;;;6318150;28;20031;-77
2024/03/13 09:01:26;;;;;;;3.30;2.83;;;;;;;;;;6324840;28;20445;-77
2024/03/13 09:04:26;;;;;;;3.73;2.90;;;;;;;;;;6324139;28;20449;-76
2024/03/13 09:07:29;;;;;;;5.20;3.55;;;;;;;;;;5961589;28;10000934;-77
2024/03/13 09:10:29;;;;;;;4.65;3.50;;;;;;;;;;6318416;28;20047;-75
2024/03/13 09:13:30;;;;;;;3.37;2.80;;;;;;;;;;6322236;28;20040;-76
2024/03/13 09:16:34;;;;;;;3.33;2.73;;;;;;;;;;6318143;28;20099;-75
2024/03/13 09:19:37;;;;;;;4.30;3.45;;;;;;;;;;6326181;28;20020;-76
2024/03/13 09:22:37;;;;;;;4.65;3.50;;;;;;;;;;6323881;28;20075;-75
2024/03/13 09:25:37;;;;;;;4.10;3.20;;;;;;;;;;6325021;28;20048;-75
2024/03/13 09:28:38;;;;;;;4.87;3.47;;;;;;;;;;6324192;28;20035;-76
2024/03/13 09:31:40;;;;;;;4.50;3.22;;;;;;;;;;6299354;28;20051;-75
2024/03/13 09:34:40;;;;;;;4.75;3.67;;;;;;;;;;6321072;28;20031;-76
2024/03/13 09:37:41;;;;;;;3.43;2.90;;;;;;;;;;6323432;28;20488;-76
2024/03/13 09:40:42;;;;;;;4.18;3.22;;;;;;;;;;6306859;28;20024;-76
2024/03/13 09:43:43;;;;;;;3.65;3.17;;;;;;;;;;6324508;28;20091;-76
2024/03/13 09:46:44;;;;;;;4.32;3.03;;;;;;;;;;6324891;28;20480;-77
2024/03/13 09:49:44;;;;;;;;;;;;;;;;;;6307120;28;20166;-77
2024/03/13 09:52:46;;;;;;;3.20;2.30;;;;;;;;;;6302432;28;19965;-76
2024/03/13 09:55:47;;;;;;;3.67;2.80;;;;;;;;;;6319579;28;20034;-76
2024/03/13 09:58:49;;;;;;;3.42;2.65;;;;;;;;;;6324147;28;20070;-76
2024/03/13 10:01:51;;;;;;;3.33;2.63;;;;;;;;;;6324215;28;20027;-75
2024/03/13 10:04:51;;;;;;;4.13;2.80;;;;;;;;;;6321631;28;20387;-75
2024/03/13 10:07:53;;;;;;;3.90;2.67;;;;;;;;;;6323266;28;20032;-76
2024/03/13 10:10:55;;;;;;;3.80;2.85;;;;;;;;;;6317367;28;20032;-77
2024/03/13 10:13:55;;;;;;;3.38;2.70;;;;;;;;;;6324171;28;20358;-77
2024/03/13 10:17:01;;;;;;;2.70;2.42;;;;;;;;;;6325521;28;20024;-77
2024/03/13 10:20:08;;;;;;;3.20;2.67;;;;;;;;;;6323357;28;20020;-78
2024/03/13 10:23:11;;;;;;;4.63;2.38;;;;;;;;;;6319424;28;21093;-77
2024/03/13 10:26:12;;;;;;;4.10;2.75;;;;;;;;;;6321809;28;20056;-77
2024/03/13 10:29:12;;;;;;;3.03;2.73;;;;;;;;;;6316982;28;20111;-77
2024/03/13 10:32:16;;;;;;;4.00;3.00;;;;;;;;;;6298812;28;20031;-77
2024/03/13 10:35:16;;;;;;;3.00;2.40;;;;;;;;;;6320796;28;20346;-77
2024/03/13 10:38:17;;;;;;;3.40;2.83;;;;;;;;;;6322693;28;20039;-77
2024/03/13 10:41:17;;;;;;;3.67;2.67;;;;;;;;;;6323035;28;20032;-77
2024/03/13 10:44:20;;;;;;;4.53;2.60;;;;;;;;;;6322241;28;20446;-77
2024/03/13 10:47:21;;;;;;;3.38;2.67;;;;;;;;;;6323218;28;20626;-77
2024/03/13 10:50:21;;;;;;;3.17;2.70;;;;;;;;;;6321135;28;20108;-77
2024/03/13 10:53:22;;;;;;;2.80;2.30;;;;;;;;;;6314579;28;20461;-77
2024/03/13 10:56:22;;;;;;;3.60;2.63;;;;;;;;;;6321175;28;20031;-77
2024/03/13 10:59:23;;;;;;;3.37;2.77;;;;;;;;;;6320802;28;20278;-78
2024/03/13 11:02:23;;;;;;;5.07;2.83;;;;;;;;;;6322322;28;20059;-79
2024/03/13 11:05:24;;;;;;;3.13;2.63;;;;;;;;;;6319814;28;20028;-80
2024/03/13 11:08:27;;;;;;;3.50;2.35;;;;;;;;;;6319205;28;20034;-80
2024/03/13 11:11:28;;;;;;;3.67;2.47;;;;;;;;;;6298345;28;20051;-80
2024/03/13 11:14:30;;;;;;;2.97;2.50;;;;;;;;;;6314262;28;20024;-79
2024/03/13 11:17:31;;;;;;;2.83;2.53;;;;;;;;;;6323412;28;20028;-79
2024/03/13 11:20:32;;;;;;;;;;;;;;;;;;6321828;28;20020;-81
2024/03/13 11:23:35;;;;;;;2.47;1.92;;;;;;;;;;6303129;28;19911;-80
2024/03/13 11:26:39;;;;;;;3.70;2.47;;;;;;;;;;6303295;28;20212;-79
2024/03/13 11:29:43;;;;;;;3.70;2.47;;;;;;;;;;6322809;28;20499;-79
2024/03/13 11:32:44;;;;;;;2.92;2.63;;;;;;;;;;6318475;28;21790;-80
2024/03/13 11:35:44;;;;;;;3.72;3.15;;;;;;;;;;6283512;28;20024;-79
2024/03/13 11:38:44;;;;;;;2.80;2.40;;;;;;;;;;6322123;28;20036;-79
2024/03/13 11:41:44;;;;;;;4.87;2.63;;;;;;;;;;6313427;28;20030;-78
2024/03/13 11:44:45;;;;;;;2.83;2.53;;;;;;;;;;6319288;28;20020;-78
2024/03/13 11:47:48;;;;;;;3.57;2.70;;;;;;;;;;6320427;28;20024;-77
2024/03/13 11:51:01;;;;;;;3.53;2.63;;;;;;;;;;6320927;28;20016;-77
2024/03/13 11:54:07;;;;;;;3.05;2.45;;;;;;;;;;6319869;28;20042;-78
2024/03/13 11:57:12;;;;;;;3.65;2.75;;;;;;;;;;6319327;28;20024;-76
2024/03/13 12:00:20;;;;;;;2.90;2.60;;;;;;;;;;6318258;28;20392;-77
2024/03/13 12:03:21;;;;;;;3.95;2.92;;;;;;;;;;6300857;28;20035;-76
2024/03/13 12:06:24;;;;;;;2.87;2.57;;;;;;;;;;6294521;28;20028;-77
2024/03/13 12:09:27;;;;;;;3.85;3.10;;;;;;;;;;6321765;28;20077;-77
2024/03/13 12:12:27;;;;;;;3.70;2.83;;;;;;;;;;6299201;28;20106;-77
2024/03/13 12:15:27;;;;;;;3.50;2.73;;;;;;;;;;6321058;28;20026;-77
2024/03/13 12:18:29;;;;;;;3.13;2.63;;;;;;;;;;6322605;28;20110;-76
2024/03/13 12:21:30;;;;;;;4.13;2.85;;;;;;;;;;6319847;28;20032;-77
2024/03/13 12:24:33;;;;;;;4.50;3.03;;;;;;;;;;6317026;28;20021;-77
2024/03/13 12:27:33;;;;;;;3.85;2.53;;;;;;;;;;6297570;28;20408;-78
2024/03/13 12:30:37;;;;;;;2.87;2.53;;;;;;;;;;6320979;28;20020;-78
2024/03/13 12:33:37;;;;;;;3.45;3.05;;;;;;;;;;6326766;28;20027;-77
2024/03/13 12:36:43;;;;;;;3.10;2.70;;;;;;;;;;6325258;28;20099;-79
2024/03/13 12:39:46;;;;;;;3.92;2.92;;;;;;;;;;6325588;28;20492;-80
2024/03/13 12:42:49;;;;;;;3.92;2.88;;;;;;;;;;6323754;28;20117;-77
2024/03/13 12:45:50;;;;;;;5.70;3.97;;;;;;;;;;6323970;28;20034;-76
2024/03/13 12:48:50;;;;;;;;;;;;;;;;;;6325284;28;20027;-77
2024/03/13 12:51:52;;;;;;;2.60;2.20;;;;;;;;;;6321141;28;19998;-78
2024/03/13 12:54:52;;;;;;;3.97;2.67;;;;;;;;;;6313403;28;20032;-77
2024/03/13 12:57:53;;;;;;;4.03;3.00;;;;;;;;;;6322654;28;20419;-76
2024/03/13 13:00:53;;;;;;;3.20;2.43;;;;;;;;;;6325373;28;20373;-77
2024/03/13 13:03:53;;;;;;;3.33;2.97;;;;;;;;;;6326286;28;20376;-76
2024/03/13 13:06:54;;;;;;;3.57;2.60;;;;;;;;;;6324451;28;20286;-76
2024/03/13 13:09:55;;;;;;;4.17;2.83;;;;;;;;;;6326105;28;20032;-75
2024/03/13 13:12:55;;;;;;;4.03;2.70;;;;;;;;;;6320444;28;20012;-76
2024/03/13 13:15:58;;;;;;;4.30;2.67;;;;;;;;;;6319768;28;20119;-76
2024/03/13 13:18:58;;;;;;;3.78;2.90;;;;;;;;;;6321786;28;20396;-76
2024/03/13 13:21:59;;;;;;;3.17;2.42;;;;;;;;;;6321845;28;20048;-77
2024/03/13 13:24:59;;;;;;;3.90;2.50;;;;;;;;;;6324115;28;20094;-75
2024/03/13 13:28:00;;;;;;;4.45;2.90;;;;;;;;;;6322785;28;20036;-76
2024/03/13 13:31:00;;;;;;;3.43;2.40;;;;;;;;;;6322516;28;20057;-76
2024/03/13 13:34:00;;;;;;;3.80;2.63;;;;;;;;;;6318573;28;20024;-76
2024/03/13 13:37:00;;;;;;;2.73;2.30;;;;;;;;;;6321890;28;20038;-76
2024/03/13 13:40:05;;;;;;;3.30;2.43;;;;;;;;;;6324978;28;20490;-76
2024/03/13 13:43:09;;;;;;;3.85;2.75;;;;;;;;;;6324177;28;20073;-76
2024/03/13 13:46:10;;;;;;;2.97;2.60;;;;;;;;;;6323877;28;20028;-76
2024/03/13 13:49:10;;;;;;;;;;;;;;;;;;6324208;28;20040;-76
2024/03/13 13:52:10;;;;;;;2.90;2.40;;;;;;;;;;6322537;28;19908;-76
2024/03/13 13:55:12;;;;;;;3.13;2.33;;;;;;;;;;6320221;28;20076;-76
2024/03/13 13:58:12;;;;;;;4.28;2.60;;;;;;;;;;6324034;28;20534;-76
2024/03/13 14:01:14;;;;;;;3.40;2.57;;;;;;;;;;6320657;28;20036;-76
2024/03/13 14:04:16;;;;;;;3.45;2.70;;;;;;;;;;6323452;28;20020;-76
2024/03/13 14:07:17;;;;;;;3.10;2.55;;;;;;;;;;6322440;28;20393;-76
2024/03/13 14:10:18;;;;;;;3.45;2.60;;;;;;;;;;6302801;28;20481;-76
2024/03/13 14:13:18;;;;;;;3.35;2.53;;;;;;;;;;6322851;28;20065;-74
2024/03/13 14:16:19;;;;;;;3.07;2.37;;;;;;;;;;6323665;28;20063;-75
2024/03/13 14:19:21;;;;;;;3.50;2.93;;;;;;;;;;6326005;28;20024;-75
2024/03/13 14:22:21;;;;;;;4.18;2.75;;;;;;;;;;6323384;28;20052;-77
2024/03/13 14:25:22;;;;;;;3.23;2.57;;;;;;;;;;6324636;28;20050;-77
2024/03/13 14:28:22;;;;;;;2.90;2.33;;;;;;;;;;6322958;28;20130;-77
2024/03/13 14:31:23;;;;;;;3.20;2.42;;;;;;;;;;6323866;28;20262;-79
2024/03/13 14:34:23;;;;;;;2.23;2.03;;;;;;;;;;6320799;28;20053;-78
2024/03/13 14:37:25;;;;;;;2.73;2.10;;;;;;;;;;6308395;28;20029;-78
2024/03/13 14:40:25;;;;;;;3.90;2.80;;;;;;;;;;6299546;28;20039;-77
2024/03/13 14:43:25;;;;;;;3.20;2.43;;;;;;;;;;6305531;28;20044;-77
2024/03/13 14:46:26;;;;;;;2.97;2.17;;;;;;;;;;6323805;28;20027;-77
2024/03/13 14:49:26;;;;;;;3.10;2.57;;;;;;;;;;6321889;28;20240;-78
2024/03/13 14:52:26;;;;;;;2.30;2.10;;;;;;;;;;6309773;28;20445;-77
2024/03/13 14:55:27;;;;;;;2.87;2.30;;;;;;;;;;6321245;28;20544;-77
2024/03/13 14:58:27;;;;;;;3.97;2.27;;;;;;;;;;6323296;28;20254;-77
2024/03/13 15:01:27;;;;;;;2.20;1.87;;;;;;;;;;6305386;28;20020;-77
2024/03/13 15:04:31;;;;;;;2.17;1.83;;;;;;;;;;6322734;28;20255;-77
2024/03/13 15:07:32;;;;;;;2.90;2.17;;;;;;;;;;6320926;28;20032;-77
2024/03/13 15:10:32;;;;;;;2.75;1.90;;;;;;;;;;6306385;28;20464;-78
2024/03/13 15:13:34;;;;;;;2.90;2.13;;;;;;;;;;6323372;28;20016;-78
2024/03/13 15:16:34;;;;;;;2.35;2.10;;;;;;;;;;6323215;28;20053;-77
2024/03/13 15:19:40;;;;;;;2.57;1.80;;;;;;;;;;6322985;28;20028;-78
2024/03/13 15:22:41;;;;;;;3.05;2.00;;;;;;;;;;6301838;28;20024;-77
2024/03/13 15:25:42;;;;;;;2.40;1.87;;;;;;;;;;6322524;28;20044;-76
2024/03/13 15:28:42;;;;;;;2.83;2.17;;;;;;;;;;6304041;28;20024;-76
2024/03/13 15:31:42;;;;;;;3.67;2.47;;;;;;;;;;6304817;28;20081;-77
2024/03/13 15:34:43;;;;;;;3.67;2.03;;;;;;;;;;6323508;28;20471;-78
2024/03/13 15:37:43;;;;;;;2.33;2.13;;;;;;;;;;6305095;28;20074;-78
2024/03/13 15:40:43;;;;;;;4.07;3.30;;;;;;;;;;6323527;28;20474;-77
2024/03/13 15:43:44;;;;;;;4.05;3.20;;;;;;;;;;6324298;28;20024;-77
2024/03/13 15:46:44;;;;;;;4.17;2.37;;;;;;;;;;6302694;28;20047;-77
2024/03/13 15:49:44;;;;;;;2.30;2.07;;;;;;;;;;6323547;28;20724;-78
2024/03/13 15:52:45;;;;;;;2.47;2.07;;;;;;;;;;6321896;28;20136;-77
2024/03/13 15:55:45;;;;;;;2.30;2.00;;;;;;;;;;6323903;28;20027;-77
2024/03/13 15:58:45;;;;;;;2.33;1.77;;;;;;;;;;6322200;28;20300;-77
2024/03/13 16:01:46;;;;;;;2.00;1.73;;;;;;;;;;6321276;28;20032;-77
2024/03/13 16:04:46;;;;;;;1.73;1.63;;;;;;;;;;6322752;28;20393;-79
2024/03/13 16:07:51;;;;;;;2.97;1.90;;;;;;;;;;6321384;28;20042;-77
2024/03/13 16:10:51;;;;;;;2.90;1.75;;;;;;;;;;6328208;28;20024;-77
2024/03/13 16:13:51;;;;;;;1.97;1.57;;;;;;;;;;6327429;28;20081;-77
2024/03/13 16:16:53;;;;;;;1.90;1.73;;;;;;;;;;6326382;28;20024;-79
2024/03/13 16:19:54;;;;;;;1.70;1.60;;;;;;;;;;6313052;28;20028;-77
2024/03/13 16:22:57;;;;;;;2.08;1.88;;;;;;;;;;6327191;28;20028;-77
2024/03/13 16:25:57;;;;;;;1.85;1.65;;;;;;;;;;6309048;28;20052;-77
2024/03/13 16:28:57;;;;;;;1.93;1.77;;;;;;;;;;6309848;28;20085;-77
2024/03/13 16:31:58;;;;;;;2.07;1.87;;;;;;;;;;6328025;28;20022;-78
2024/03/13 16:34:59;;;;;;;4.18;2.40;;;;;;;;;;6324689;28;20032;-76
2024/03/13 16:37:59;;;;;;;2.75;2.28;;;;;;;;;;6288420;28;20241;-76
2024/03/13 16:40:59;;;;;;;2.70;2.33;;;;;;;;;;6303748;28;20024;-78
2024/03/13 16:44:00;;;;;;;3.17;2.23;;;;;;;;;;6304898;28;20016;-76
2024/03/13 16:47:00;;;;;;;2.38;2.17;;;;;;;;;;6327899;28;20054;-77
2024/03/13 16:50:03;;;;;;;2.07;1.67;;;;;;;;;;6326680;28;20082;-76
2024/03/13 16:53:04;;;;;;;2.00;1.80;;;;;;;;;;6324482;28;20149;-77
2024/03/13 16:56:05;;;;;;;3.35;1.85;;;;;;;;;;6324549;28;20033;-77
2024/03/13 16:59:05;;;;;;;1.57;1.43;;;;;;;;;;6327989;28;20031;-77
2024/03/13 17:02:07;;;;;;;1.93;1.57;;;;;;;;;;6315846;28;20059;-77
2024/03/13 17:05:07;;;;;;;2.10;1.65;;;;;;;;;;6310905;28;20024;-77
2024/03/13 17:08:07;;;;;;;2.13;1.60;;;;;;;;;;6324333;28;20380;-77
2024/03/13 17:11:08;;;;;;;3.23;1.80;;;;;;;;;;6316239;28;20102;-76
2024/03/13 17:14:08;;;;;;;2.17;1.73;;;;;;;;;;6322781;28;20035;-77
2024/03/13 17:17:08;;;;;;;2.53;1.80;;;;;;;;;;6321268;28;20438;-76
2024/03/13 17:20:09;;;;;;;2.30;1.83;;;;;;;;;;6319945;28;20397;-75
2024/03/13 17:23:10;;;;;;;2.38;2.05;;;;;;;;;;6322639;28;20031;-76
2024/03/13 17:26:10;;;;;;;2.05;1.85;;;;;;;;;;6324678;28;20044;-76
2024/03/13 17:29:11;;;;;;;2.13;1.87;;;;;;;;;;6322024;28;20468;-78
2024/03/13 17:32:14;;;;;;;2.63;1.90;;;;;;;;;;6317346;28;20376;-75
2024/03/13 17:35:14;;;;;;;2.90;2.05;;;;;;;;;;6320239;28;20036;-73
2024/03/13 17:38:15;;;;;;;2.80;1.80;;;;;;;;;;6323198;28;20085;-73
2024/03/13 17:41:15;;;;;;;2.00;1.67;;;;;;;;;;6304311;28;20059;-73
2024/03/13 17:44:17;;;;;;;2.83;1.80;;;;;;;;;;6322866;28;20016;-73
2024/03/13 17:47:18;;;;;;;3.03;2.40;;;;;;;;;;6322774;28;20182;-75
2024/03/13 17:50:18;;;;;;;3.13;2.50;;;;;;;;;;6319557;28;20403;-75
2024/03/13 17:53:18;;;;;;;2.73;2.07;;;;;;;;;;6322660;28;20038;-74
2024/03/13 17:56:19;;;;;;;3.37;1.87;;;;;;;;;;6322564;28;20495;-75
2024/03/13 17:59:19;;;;;;;3.97;1.87;;;;;;;;;;6323464;28;20027;-74
2024/03/13 18:02:19;;;;;;;1.60;1.50;;;;;;;;;;6322244;28;20020;-75
2024/03/13 18:05:24;;;;;;;2.23;2.00;;;;;;;;;;6322958;28;20020;-75
2024/03/13 18:08:24;;;;;;;1.75;1.60;;;;;;;;;;6320501;28;20085;-75
2024/03/13 18:11:25;;;;;;;2.20;2.00;;;;;;;;;;6319564;28;20036;-75
2024/03/13 18:14:25;;;;;;;1.87;1.67;;;;;;;;;;6323325;28;20028;-74
2024/03/13 18:17:27;;;;;;;2.57;1.80;;;;;;;;;;6320996;28;20577;-76
2024/03/13 18:20:29;;;;;;;2.47;1.80;;;;;;;;;;6318613;28;20387;-76
2024/03/13 18:23:30;;;;;;;2.63;1.85;;;;;;;;;;6320663;28;20409;-76
2024/03/13 18:26:33;;;;;;;2.73;1.67;;;;;;;;;;6320381;28;20063;-76